sensor_id;sensor_type;location;lat;lon;timestamp;pressure;altitude;pressure_sealevel;temperature;humidity
9139;BME280;4604;48.616;9.548;2022-11-15T00:01:07;96675.59;;;11.87;65.30
9139;BME280;4604;48.616;9.548;2022-11-15T00:03:36;96684.78;;;11.83;65.82
9139;BME280;4604;48.616;9.548;2022-11-15T00:06:04;96691.22;;;11.81;66.10
9139;BME280;4604;48.616;9.548;2022-11-15T00:08:32;96655.97;;;11.54;66.62
9139;BME280;4604;48.616;9.548;2022-11-15T00:11:01;96679.59;;;11.73;67.16
9139;BME280;4604;48.616;9.548;2022-11-15T00:13:29;96664.94;;;11.61;67.22
9139;BME280;4604;48.616;9.548;2022-11-15T00:15:58;96715.53;;;12.02;67.28
9139;BME280;4604;48.616;9.548;2022-11-15T00:18:26;96686.38;;;11.76;67.41
9139;BME280;4604;48.616;9.548;2022-11-15T00:20:52;96667.00;;;11.49;68.25
9139;BME280;4604;48.616;9.548;2022-11-15T00:23:19;96703.38;;;11.73;68.29
9139;BME280;4604;48.616;9.548;2022-11-15T00:25:46;96714.16;;;11.80;67.04
9139;BME280;4604;48.616;9.548;2022-11-15T00:28:13;96728.09;;;12.00;67.30
9139;BME280;4604;48.616;9.548;2022-11-15T00:30:39;96724.41;;;11.93;67.34
9139;BME280;4604;48.616;9.548;2022-11-15T00:33:10;96712.06;;;11.84;67.92
9139;BME280;4604;48.616;9.548;2022-11-15T00:35:37;96701.25;;;11.77;67.92
9139;BME280;4604;48.616;9.548;2022-11-15T00:38:04;96726.19;;;11.92;68.55
9139;BME280;4604;48.616;9.548;2022-11-15T00:40:31;96734.13;;;11.92;68.29
9139;BME280;4604;48.616;9.548;2022-11-15T00:42:58;96720.41;;;11.89;68.50
9139;BME280;4604;48.616;9.548;2022-11-15T00:45:26;96634.44;;;11.31;68.93
9139;BME280;4604;48.616;9.548;2022-11-15T00:47:53;96715.38;;;11.86;68.75
9139;BME280;4604;48.616;9.548;2022-11-15T00:50:21;96650.44;;;11.47;67.88
9139;BME280;4604;48.616;9.548;2022-11-15T00:52:48;96627.44;;;11.40;68.77
9139;BME280;4604;48.616;9.548;2022-11-15T00:55:15;96700.66;;;11.83;69.02
9139;BME280;4604;48.616;9.548;2022-11-15T00:57:42;96701.34;;;11.85;69.33
9139;BME280;4604;48.616;9.548;2022-11-15T01:00:10;96693.41;;;11.85;69.29
9139;BME280;4604;48.616;9.548;2022-11-15T01:02:36;96694.16;;;11.77;69.77
9139;BME280;4604;48.616;9.548;2022-11-15T01:05:04;96705.22;;;11.73;70.41
9139;BME280;4604;48.616;9.548;2022-11-15T01:07:32;96697.19;;;11.65;71.41
9139;BME280;4604;48.616;9.548;2022-11-15T01:09:59;96689.50;;;11.53;72.61
9139;BME280;4604;48.616;9.548;2022-11-15T01:12:25;96672.78;;;11.35;74.01
9139;BME280;4604;48.616;9.548;2022-11-15T01:14:52;96663.56;;;11.21;74.34
9139;BME280;4604;48.616;9.548;2022-11-15T01:17:19;96585.84;;;10.60;74.59
9139;BME280;4604;48.616;9.548;2022-11-15T01:19:46;96646.84;;;10.85;75.12
9139;BME280;4604;48.616;9.548;2022-11-15T01:22:13;96665.66;;;11.00;75.42
9139;BME280;4604;48.616;9.548;2022-11-15T01:24:41;96597.16;;;10.53;75.62
9139;BME280;4604;48.616;9.548;2022-11-15T01:27:09;96643.59;;;10.73;76.05
9139;BME280;4604;48.616;9.548;2022-11-15T01:29:36;96658.75;;;10.71;77.04
9139;BME280;4604;48.616;9.548;2022-11-15T01:32:02;96649.19;;;10.60;77.60
9139;BME280;4604;48.616;9.548;2022-11-15T01:34:29;96658.53;;;10.55;77.98
9139;BME280;4604;48.616;9.548;2022-11-15T01:36:56;96605.06;;;10.15;78.47
9139;BME280;4604;48.616;9.548;2022-11-15T01:39:23;96601.50;;;9.97;79.31
9139;BME280;4604;48.616;9.548;2022-11-15T01:41:51;96660.81;;;10.40;79.88
9139;BME280;4604;48.616;9.548;2022-11-15T01:44:43;96675.94;;;10.38;80.75
9139;BME280;4604;48.616;9.548;2022-11-15T01:47:15;96678.31;;;10.31;81.57
9139;BME280;4604;48.616;9.548;2022-11-15T01:49:49;96650.19;;;10.12;81.99
9139;BME280;4604;48.616;9.548;2022-11-15T01:52:19;96623.03;;;9.92;82.56
9139;BME280;4604;48.616;9.548;2022-11-15T01:54:48;96661.69;;;10.11;82.89
9139;BME280;4604;48.616;9.548;2022-11-15T01:57:18;96609.22;;;9.71;83.46
9139;BME280;4604;48.616;9.548;2022-11-15T01:59:45;96646.19;;;9.98;83.85
9139;BME280;4604;48.616;9.548;2022-11-15T02:02:13;96588.00;;;9.53;84.31
9139;BME280;4604;48.616;9.548;2022-11-15T02:04:42;96637.22;;;9.81;84.75
9139;BME280;4604;48.616;9.548;2022-11-15T02:07:11;96575.56;;;9.26;85.53
9139;BME280;4604;48.616;9.548;2022-11-15T02:09:40;96646.38;;;9.58;86.81
9139;BME280;4604;48.616;9.548;2022-11-15T02:12:08;96556.63;;;9.03;86.91
9139;BME280;4604;48.616;9.548;2022-11-15T02:14:43;96636.69;;;9.58;87.42
9139;BME280;4604;48.616;9.548;2022-11-15T02:17:28;96550.50;;;8.92;87.83
9139;BME280;4604;48.616;9.548;2022-11-15T02:20:20;96639.47;;;9.47;88.50
9139;BME280;4604;48.616;9.548;2022-11-15T02:23:09;96630.47;;;9.40;88.75
9139;BME280;4604;48.616;9.548;2022-11-15T02:25:51;96593.59;;;9.11;89.63
9139;BME280;4604;48.616;9.548;2022-11-15T02:28:51;96623.53;;;9.29;90.24
9139;BME280;4604;48.616;9.548;2022-11-15T02:31:28;96626.16;;;9.19;91.31
9139;BME280;4604;48.616;9.548;2022-11-15T02:34:04;96630.16;;;9.14;91.79
9139;BME280;4604;48.616;9.548;2022-11-15T02:36:40;96516.41;;;8.52;92.09
9139;BME280;4604;48.616;9.548;2022-11-15T02:39:13;96583.63;;;8.85;91.93
9139;BME280;4604;48.616;9.548;2022-11-15T02:41:47;96531.38;;;8.51;92.60
9139;BME280;4604;48.616;9.548;2022-11-15T02:44:20;96598.56;;;8.85;93.56
9139;BME280;4604;48.616;9.548;2022-11-15T02:46:52;96578.59;;;8.72;93.61
9139;BME280;4604;48.616;9.548;2022-11-15T02:49:40;96582.47;;;8.68;93.99
9139;BME280;4604;48.616;9.548;2022-11-15T02:52:08;96507.19;;;8.17;94.68
9139;BME280;4604;48.616;9.548;2022-11-15T02:54:35;96571.06;;;8.48;95.28
9139;BME280;4604;48.616;9.548;2022-11-15T02:57:06;96565.81;;;8.48;96.28
9139;BME280;4604;48.616;9.548;2022-11-15T03:00:04;96563.03;;;8.40;97.42
9139;BME280;4604;48.616;9.548;2022-11-15T03:02:43;96499.50;;;7.94;97.72
9139;BME280;4604;48.616;9.548;2022-11-15T03:05:29;96500.59;;;7.92;97.80
9139;BME280;4604;48.616;9.548;2022-11-15T03:08:12;96531.50;;;8.09;97.94
9139;BME280;4604;48.616;9.548;2022-11-15T03:10:53;96593.63;;;8.51;98.43
9139;BME280;4604;48.616;9.548;2022-11-15T03:13:27;96486.09;;;7.88;97.76
9139;BME280;4604;48.616;9.548;2022-11-15T03:16:00;96592.09;;;8.48;98.71
9139;BME280;4604;48.616;9.548;2022-11-15T03:18:36;96574.19;;;8.32;99.12
9139;BME280;4604;48.616;9.548;2022-11-15T03:21:07;96539.84;;;8.14;98.92
9139;BME280;4604;48.616;9.548;2022-11-15T03:23:36;96548.66;;;8.13;99.36
9139;BME280;4604;48.616;9.548;2022-11-15T03:26:07;96594.63;;;8.50;99.47
9139;BME280;4604;48.616;9.548;2022-11-15T03:28:40;96567.97;;;8.33;99.72
9139;BME280;4604;48.616;9.548;2022-11-15T03:31:08;96547.91;;;8.32;99.68
9139;BME280;4604;48.616;9.548;2022-11-15T03:33:55;96557.88;;;8.39;99.83
9139;BME280;4604;48.616;9.548;2022-11-15T03:36:25;96579.41;;;8.63;100.00
9139;BME280;4604;48.616;9.548;2022-11-15T03:38:54;96562.38;;;8.57;99.42
9139;BME280;4604;48.616;9.548;2022-11-15T03:41:24;96567.81;;;8.66;99.47
9139;BME280;4604;48.616;9.548;2022-11-15T03:43:57;96567.38;;;8.70;99.22
9139;BME280;4604;48.616;9.548;2022-11-15T03:46:29;96483.81;;;8.24;98.86
9139;BME280;4604;48.616;9.548;2022-11-15T03:49:06;96560.06;;;8.74;99.16
9139;BME280;4604;48.616;9.548;2022-11-15T03:51:34;96435.34;;;7.97;99.37
9139;BME280;4604;48.616;9.548;2022-11-15T03:54:03;96447.66;;;7.97;99.62
9139;BME280;4604;48.616;9.548;2022-11-15T03:56:30;96543.97;;;8.67;100.00
9139;BME280;4604;48.616;9.548;2022-11-15T03:58:56;96487.84;;;8.38;100.00
9139;BME280;4604;48.616;9.548;2022-11-15T04:01:23;96524.19;;;8.53;100.00
9139;BME280;4604;48.616;9.548;2022-11-15T04:03:52;96509.94;;;8.56;100.00
9139;BME280;4604;48.616;9.548;2022-11-15T04:06:21;96521.13;;;8.77;97.39
9139;BME280;4604;48.616;9.548;2022-11-15T04:08:48;96487.63;;;8.70;94.98
9139;BME280;4604;48.616;9.548;2022-11-15T04:11:15;96537.31;;;9.12;92.52
9139;BME280;4604;48.616;9.548;2022-11-15T04:13:43;96476.56;;;8.86;91.23
9139;BME280;4604;48.616;9.548;2022-11-15T04:16:10;96493.28;;;9.04;90.54
9139;BME280;4604;48.616;9.548;2022-11-15T04:19:15;96474.44;;;8.99;88.50
9139;BME280;4604;48.616;9.548;2022-11-15T04:22:16;96530.88;;;9.63;86.28
9139;BME280;4604;48.616;9.548;2022-11-15T04:25:01;96454.34;;;9.17;84.23
9139;BME280;4604;48.616;9.548;2022-11-15T04:27:30;96531.41;;;9.76;83.55
9139;BME280;4604;48.616;9.548;2022-11-15T04:30:00;96468.38;;;9.46;82.38
9139;BME280;4604;48.616;9.548;2022-11-15T04:32:27;96499.50;;;9.70;82.34
9139;BME280;4604;48.616;9.548;2022-11-15T04:34:54;96524.25;;;9.96;81.73
9139;BME280;4604;48.616;9.548;2022-11-15T04:37:22;96516.75;;;9.92;80.62
9139;BME280;4604;48.616;9.548;2022-11-15T04:39:50;96427.53;;;9.41;81.16
9139;BME280;4604;48.616;9.548;2022-11-15T04:42:17;96524.94;;;9.98;81.56
9139;BME280;4604;48.616;9.548;2022-11-15T04:44:44;96470.72;;;9.58;82.31
9139;BME280;4604;48.616;9.548;2022-11-15T04:47:10;96526.63;;;9.90;83.41
9139;BME280;4604;48.616;9.548;2022-11-15T04:49:37;96522.75;;;9.84;83.99
9139;BME280;4604;48.616;9.548;2022-11-15T04:52:04;96478.38;;;9.52;84.96
9139;BME280;4604;48.616;9.548;2022-11-15T04:54:32;96450.41;;;9.31;85.41
9139;BME280;4604;48.616;9.548;2022-11-15T04:56:59;96444.22;;;9.23;85.73
9139;BME280;4604;48.616;9.548;2022-11-15T04:59:26;96482.16;;;9.39;86.17
9139;BME280;4604;48.616;9.548;2022-11-15T05:01:53;96477.56;;;9.41;86.15
9139;BME280;4604;48.616;9.548;2022-11-15T05:04:22;96509.66;;;9.64;86.52
9139;BME280;4604;48.616;9.548;2022-11-15T05:06:49;96499.56;;;9.50;86.67
9139;BME280;4604;48.616;9.548;2022-11-15T05:09:16;96443.81;;;9.17;87.12
9139;BME280;4604;48.616;9.548;2022-11-15T05:11:45;96493.34;;;9.51;86.53
9139;BME280;4604;48.616;9.548;2022-11-15T05:14:13;96523.50;;;9.76;86.95
9139;BME280;4604;48.616;9.548;2022-11-15T05:16:40;96502.03;;;9.61;87.76
9139;BME280;4604;48.616;9.548;2022-11-15T05:19:07;96515.31;;;9.70;88.64
9139;BME280;4604;48.616;9.548;2022-11-15T05:21:34;96523.38;;;9.68;89.33
9139;BME280;4604;48.616;9.548;2022-11-15T05:24:02;96523.38;;;9.68;90.18
9139;BME280;4604;48.616;9.548;2022-11-15T05:26:29;96422.50;;;9.01;90.49
9139;BME280;4604;48.616;9.548;2022-11-15T05:28:58;96526.28;;;9.65;90.46
9139;BME280;4604;48.616;9.548;2022-11-15T05:31:26;96517.84;;;9.61;90.41
9139;BME280;4604;48.616;9.548;2022-11-15T05:33:54;96476.63;;;9.33;90.20
9139;BME280;4604;48.616;9.548;2022-11-15T05:36:27;96473.97;;;9.33;89.60
9139;BME280;4604;48.616;9.548;2022-11-15T05:38:55;96476.09;;;9.29;89.96
9139;BME280;4604;48.616;9.548;2022-11-15T05:41:26;96514.56;;;9.50;89.85
9139;BME280;4604;48.616;9.548;2022-11-15T05:43:59;96504.31;;;9.47;89.88
9139;BME280;4604;48.616;9.548;2022-11-15T05:46:28;96513.31;;;9.44;89.92
9139;BME280;4604;48.616;9.548;2022-11-15T05:48:57;96500.41;;;9.41;90.00
9139;BME280;4604;48.616;9.548;2022-11-15T05:51:26;96407.16;;;8.77;90.05
9139;BME280;4604;48.616;9.548;2022-11-15T05:53:55;96504.72;;;9.52;89.65
9139;BME280;4604;48.616;9.548;2022-11-15T05:56:23;96409.09;;;8.85;89.91
9139;BME280;4604;48.616;9.548;2022-11-15T05:58:51;96490.47;;;9.35;89.91
9139;BME280;4604;48.616;9.548;2022-11-15T06:01:20;96463.34;;;9.15;90.04
9139;BME280;4604;48.616;9.548;2022-11-15T06:03:47;96476.66;;;9.13;90.91
9139;BME280;4604;48.616;9.548;2022-11-15T06:06:13;96470.56;;;9.13;91.45
9139;BME280;4604;48.616;9.548;2022-11-15T06:08:40;96456.03;;;8.99;92.51
9139;BME280;4604;48.616;9.548;2022-11-15T06:11:07;96399.72;;;8.53;92.96
9139;BME280;4604;48.616;9.548;2022-11-15T06:13:34;96479.03;;;8.87;94.23
9139;BME280;4604;48.616;9.548;2022-11-15T06:16:02;96488.03;;;8.85;94.69
9139;BME280;4604;48.616;9.548;2022-11-15T06:18:33;96454.81;;;8.54;95.40
9139;BME280;4604;48.616;9.548;2022-11-15T06:21:00;96468.09;;;8.53;95.65
9139;BME280;4604;48.616;9.548;2022-11-15T06:23:27;96503.28;;;8.71;96.11
9139;BME280;4604;48.616;9.548;2022-11-15T06:25:57;96506.03;;;8.70;96.01
9139;BME280;4604;48.616;9.548;2022-11-15T06:28:24;96484.84;;;8.52;96.13
9139;BME280;4604;48.616;9.548;2022-11-15T06:30:51;96495.66;;;8.59;95.81
9139;BME280;4604;48.616;9.548;2022-11-15T06:33:17;96513.81;;;8.62;95.42
9139;BME280;4604;48.616;9.548;2022-11-15T06:35:45;96455.88;;;8.23;94.59
9139;BME280;4604;48.616;9.548;2022-11-15T06:38:12;96502.69;;;8.58;94.76
9139;BME280;4604;48.616;9.548;2022-11-15T06:40:39;96456.56;;;8.25;94.43
9139;BME280;4604;48.616;9.548;2022-11-15T06:43:06;96492.75;;;8.42;94.83
9139;BME280;4604;48.616;9.548;2022-11-15T06:45:33;96501.03;;;8.47;94.87
9139;BME280;4604;48.616;9.548;2022-11-15T06:48:00;96514.06;;;8.49;95.34
9139;BME280;4604;48.616;9.548;2022-11-15T06:50:27;96516.13;;;8.45;95.26
9139;BME280;4604;48.616;9.548;2022-11-15T06:52:55;96517.50;;;8.40;95.98
9139;BME280;4604;48.616;9.548;2022-11-15T06:55:21;96512.63;;;8.35;95.96
9139;BME280;4604;48.616;9.548;2022-11-15T06:57:49;96475.34;;;8.10;96.22
9139;BME280;4604;48.616;9.548;2022-11-15T07:00:18;96512.91;;;8.32;95.83
9139;BME280;4604;48.616;9.548;2022-11-15T07:02:45;96510.53;;;8.29;96.19
9139;BME280;4604;48.616;9.548;2022-11-15T07:05:12;96503.09;;;8.34;95.94
9139;BME280;4604;48.616;9.548;2022-11-15T07:07:40;96498.22;;;8.29;95.65
9139;BME280;4604;48.616;9.548;2022-11-15T07:10:09;96494.59;;;8.21;95.79
9139;BME280;4604;48.616;9.548;2022-11-15T07:12:36;96508.34;;;8.34;95.92
9139;BME280;4604;48.616;9.548;2022-11-15T07:15:03;96515.69;;;8.40;96.09
9139;BME280;4604;48.616;9.548;2022-11-15T07:17:30;96515.69;;;8.40;96.53
9139;BME280;4604;48.616;9.548;2022-11-15T07:19:56;96447.53;;;8.08;95.96
9139;BME280;4604;48.616;9.548;2022-11-15T07:22:23;96502.66;;;8.39;96.44
9139;BME280;4604;48.616;9.548;2022-11-15T07:24:50;96490.34;;;8.39;96.50
9139;BME280;4604;48.616;9.548;2022-11-15T07:27:18;96497.19;;;8.61;95.75
9139;BME280;4604;48.616;9.548;2022-11-15T07:29:44;96491.94;;;8.61;95.27
9139;BME280;4604;48.616;9.548;2022-11-15T07:32:11;96495.22;;;8.73;95.05
9139;BME280;4604;48.616;9.548;2022-11-15T07:34:38;96489.16;;;8.72;94.98
9139;BME280;4604;48.616;9.548;2022-11-15T07:37:05;96433.09;;;8.52;94.45
9139;BME280;4604;48.616;9.548;2022-11-15T07:39:31;96484.84;;;9.00;94.28
9139;BME280;4604;48.616;9.548;2022-11-15T07:41:58;96486.34;;;9.13;93.75
9139;BME280;4604;48.616;9.548;2022-11-15T07:44:40;96479.97;;;9.25;93.07
9139;BME280;4604;48.616;9.548;2022-11-15T07:47:07;96473.88;;;9.25;92.54
9139;BME280;4604;48.616;9.548;2022-11-15T07:49:34;96491.56;;;9.42;91.88
9139;BME280;4604;48.616;9.548;2022-11-15T07:52:00;96485.59;;;9.40;91.85
9139;BME280;4604;48.616;9.548;2022-11-15T07:54:27;96501.09;;;9.53;91.87
9139;BME280;4604;48.616;9.548;2022-11-15T07:56:54;96490.81;;;9.59;91.05
9139;BME280;4604;48.616;9.548;2022-11-15T07:59:21;96496.88;;;9.70;90.48
9139;BME280;4604;48.616;9.548;2022-11-15T08:01:49;96497.44;;;9.73;90.30
9139;BME280;4604;48.616;9.548;2022-11-15T08:04:16;96456.88;;;9.56;90.08
9139;BME280;4604;48.616;9.548;2022-11-15T08:06:42;96448.06;;;9.65;89.41
9139;BME280;4604;48.616;9.548;2022-11-15T08:09:09;96475.53;;;10.00;89.46
9139;BME280;4604;48.616;9.548;2022-11-15T08:11:36;96482.22;;;10.22;88.89
9139;BME280;4604;48.616;9.548;2022-11-15T08:14:02;96460.03;;;10.15;88.29
9139;BME280;4604;48.616;9.548;2022-11-15T08:16:29;96424.78;;;10.16;87.70
9139;BME280;4604;48.616;9.548;2022-11-15T08:18:57;96450.84;;;10.47;86.67
9139;BME280;4604;48.616;9.548;2022-11-15T08:21:25;96464.75;;;10.75;85.91
9139;BME280;4604;48.616;9.548;2022-11-15T08:23:52;96458.94;;;10.89;85.04
9139;BME280;4604;48.616;9.548;2022-11-15T08:26:18;96456.31;;;11.07;83.68
9139;BME280;4604;48.616;9.548;2022-11-15T08:28:45;96442.63;;;11.12;83.02
9139;BME280;4604;48.616;9.548;2022-11-15T08:31:14;96455.84;;;11.38;83.01
9139;BME280;4604;48.616;9.548;2022-11-15T08:33:42;96424.31;;;11.37;82.64
9139;BME280;4604;48.616;9.548;2022-11-15T08:36:13;96446.53;;;11.60;82.51
9139;BME280;4604;48.616;9.548;2022-11-15T08:38:40;96449.03;;;11.62;82.87
9139;BME280;4604;48.616;9.548;2022-11-15T08:41:11;96447.06;;;11.64;83.81
9139;BME280;4604;48.616;9.548;2022-11-15T08:43:38;96444.25;;;11.65;83.83
9139;BME280;4604;48.616;9.548;2022-11-15T08:46:05;96447.91;;;11.64;83.62
9139;BME280;4604;48.616;9.548;2022-11-15T08:48:32;96446.25;;;11.63;83.18
9139;BME280;4604;48.616;9.548;2022-11-15T08:50:59;96454.75;;;11.49;81.04
9139;BME280;4604;48.616;9.548;2022-11-15T08:53:27;96425.59;;;11.32;81.06
9139;BME280;4604;48.616;9.548;2022-11-15T08:55:53;96449.03;;;11.35;78.38
9139;BME280;4604;48.616;9.548;2022-11-15T08:58:20;96410.50;;;10.99;78.44
9139;BME280;4604;48.616;9.548;2022-11-15T09:00:47;96443.28;;;11.14;79.55
9139;BME280;4604;48.616;9.548;2022-11-15T09:03:13;96438.66;;;11.08;80.48
9139;BME280;4604;48.616;9.548;2022-11-15T09:05:40;96414.59;;;10.93;80.63
9139;BME280;4604;48.616;9.548;2022-11-15T09:08:07;96432.22;;;11.10;80.56
9139;BME280;4604;48.616;9.548;2022-11-15T09:10:35;96424.75;;;11.06;80.87
9139;BME280;4604;48.616;9.548;2022-11-15T09:13:02;96379.38;;;10.84;79.98
9139;BME280;4604;48.616;9.548;2022-11-15T09:15:29;96425.91;;;11.29;78.97
9139;BME280;4604;48.616;9.548;2022-11-15T09:17:58;96432.69;;;11.32;79.56
9139;BME280;4604;48.616;9.548;2022-11-15T09:20:24;96427.88;;;11.27;80.65
9139;BME280;4604;48.616;9.548;2022-11-15T09:22:51;96429.66;;;11.53;80.63
9139;BME280;4604;48.616;9.548;2022-11-15T09:25:18;96428.41;;;11.65;80.48
9139;BME280;4604;48.616;9.548;2022-11-15T09:27:46;96417.88;;;11.73;80.88
9139;BME280;4604;48.616;9.548;2022-11-15T09:30:13;96393.59;;;11.78;80.98
9139;BME280;4604;48.616;9.548;2022-11-15T09:32:40;96389.72;;;11.98;80.44
9139;BME280;4604;48.616;9.548;2022-11-15T09:35:07;96414.75;;;12.29;79.66
9139;BME280;4604;48.616;9.548;2022-11-15T09:37:33;96377.38;;;12.07;79.34
9139;BME280;4604;48.616;9.548;2022-11-15T09:40:00;96413.09;;;12.28;78.63
9139;BME280;4604;48.616;9.548;2022-11-15T09:42:39;96422.88;;;12.35;77.94
9139;BME280;4604;48.616;9.548;2022-11-15T09:45:18;96401.84;;;12.26;77.93
9139;BME280;4604;48.616;9.548;2022-11-15T09:47:56;96418.44;;;12.44;77.77
9139;BME280;4604;48.616;9.548;2022-11-15T09:50:34;96387.66;;;12.35;77.45
9139;BME280;4604;48.616;9.548;2022-11-15T09:53:03;96390.63;;;12.40;77.57
9139;BME280;4604;48.616;9.548;2022-11-15T09:55:35;96357.22;;;12.23;77.67
9139;BME280;4604;48.616;9.548;2022-11-15T09:58:10;96395.28;;;12.54;78.28
9139;BME280;4604;48.616;9.548;2022-11-15T10:00:45;96351.44;;;12.27;78.65
9139;BME280;4604;48.616;9.548;2022-11-15T10:03:22;96359.22;;;12.37;79.31
9139;BME280;4604;48.616;9.548;2022-11-15T10:05:52;96392.28;;;12.57;80.16
9139;BME280;4604;48.616;9.548;2022-11-15T10:08:40;96395.44;;;12.69;80.93
9139;BME280;4604;48.616;9.548;2022-11-15T10:11:15;96375.44;;;12.58;81.27
9139;BME280;4604;48.616;9.548;2022-11-15T10:13:46;96350.59;;;12.59;81.57
9139;BME280;4604;48.616;9.548;2022-11-15T10:16:26;96388.66;;;12.83;82.14
9139;BME280;4604;48.616;9.548;2022-11-15T10:19:00;96396.28;;;12.86;80.67
9139;BME280;4604;48.616;9.548;2022-11-15T10:21:39;96392.81;;;12.85;81.29
9139;BME280;4604;48.616;9.548;2022-11-15T10:24:11;96388.47;;;12.84;82.10
9139;BME280;4604;48.616;9.548;2022-11-15T10:26:38;96377.91;;;12.93;82.13
9139;BME280;4604;48.616;9.548;2022-11-15T10:29:04;96317.50;;;12.55;82.32
9139;BME280;4604;48.616;9.548;2022-11-15T10:31:33;96381.19;;;12.95;81.89
9139;BME280;4604;48.616;9.548;2022-11-15T10:34:12;96369.44;;;12.89;81.90
9139;BME280;4604;48.616;9.548;2022-11-15T10:36:44;96330.25;;;12.76;79.77
9139;BME280;4604;48.616;9.548;2022-11-15T10:39:12;96369.59;;;13.12;79.22
9139;BME280;4604;48.616;9.548;2022-11-15T10:41:40;96310.19;;;12.82;73.96
9139;BME280;4604;48.616;9.548;2022-11-15T10:44:23;96359.78;;;13.21;73.77
9139;BME280;4604;48.616;9.548;2022-11-15T10:50:01;96351.47;;;13.40;74.60
9139;BME280;4604;48.616;9.548;2022-11-15T10:52:29;96356.22;;;13.53;75.39
9139;BME280;4604;48.616;9.548;2022-11-15T10:55:00;96356.56;;;13.58;76.13
9139;BME280;4604;48.616;9.548;2022-11-15T10:57:29;96273.34;;;13.20;76.68
9139;BME280;4604;48.616;9.548;2022-11-15T10:59:59;96298.47;;;13.40;76.24
9139;BME280;4604;48.616;9.548;2022-11-15T11:02:30;96339.09;;;13.72;76.13
9139;BME280;4604;48.616;9.548;2022-11-15T11:04:59;96333.44;;;13.75;76.63
9139;BME280;4604;48.616;9.548;2022-11-15T11:07:28;96338.41;;;13.78;77.95
9139;BME280;4604;48.616;9.548;2022-11-15T11:10:00;96319.84;;;13.78;77.89
9139;BME280;4604;48.616;9.548;2022-11-15T11:12:30;96333.19;;;13.93;76.69
9139;BME280;4604;48.616;9.548;2022-11-15T11:15:01;96312.41;;;13.74;76.96
9139;BME280;4604;48.616;9.548;2022-11-15T11:17:48;96314.59;;;13.62;78.38
9139;BME280;4604;48.616;9.548;2022-11-15T11:20:23;96322.81;;;13.44;79.87
9139;BME280;4604;48.616;9.548;2022-11-15T11:23:02;96334.19;;;13.61;79.69
9139;BME280;4604;48.616;9.548;2022-11-15T11:25:34;96330.25;;;13.48;79.74
9139;BME280;4604;48.616;9.548;2022-11-15T11:28:21;96335.81;;;13.62;79.10
9139;BME280;4604;48.616;9.548;2022-11-15T11:31:00;96319.78;;;13.55;80.10
9139;BME280;4604;48.616;9.548;2022-11-15T11:33:35;96332.50;;;13.68;80.01
9139;BME280;4604;48.616;9.548;2022-11-15T11:36:19;96328.13;;;13.75;79.45
9139;BME280;4604;48.616;9.548;2022-11-15T11:38:58;96319.91;;;13.62;79.37
9139;BME280;4604;48.616;9.548;2022-11-15T11:41:39;96309.22;;;13.78;74.66
9139;BME280;4604;48.616;9.548;2022-11-15T11:44:18;96290.91;;;13.60;75.48
9139;BME280;4604;48.616;9.548;2022-11-15T11:46:55;96269.53;;;13.22;77.71
9139;BME280;4604;48.616;9.548;2022-11-15T11:49:26;96300.47;;;13.38;78.56
9139;BME280;4604;48.616;9.548;2022-11-15T11:52:02;96316.31;;;13.55;78.82
9139;BME280;4604;48.616;9.548;2022-11-15T11:54:34;96311.22;;;13.45;79.78
9139;BME280;4604;48.616;9.548;2022-11-15T11:57:06;96243.47;;;12.95;79.41
9139;BME280;4604;48.616;9.548;2022-11-15T11:59:41;96315.19;;;13.49;79.63
9139;BME280;4604;48.616;9.548;2022-11-15T12:02:14;96308.69;;;13.52;80.58
9139;BME280;4604;48.616;9.548;2022-11-15T12:04:45;96302.03;;;13.56;81.12
9139;BME280;4604;48.616;9.548;2022-11-15T12:07:20;96288.44;;;13.59;81.64
9139;BME280;4604;48.616;9.548;2022-11-15T12:09:55;96293.88;;;13.65;81.92
9139;BME280;4604;48.616;9.548;2022-11-15T12:12:36;96290.16;;;13.83;80.92
9139;BME280;4604;48.616;9.548;2022-11-15T12:15:12;96252.00;;;13.61;80.50
9139;BME280;4604;48.616;9.548;2022-11-15T12:17:41;96282.00;;;13.84;80.89
9139;BME280;4604;48.616;9.548;2022-11-15T12:20:16;96248.63;;;13.67;80.08
9139;BME280;4604;48.616;9.548;2022-11-15T12:22:49;96214.91;;;13.53;79.46
9139;BME280;4604;48.616;9.548;2022-11-15T12:25:21;96252.16;;;13.82;78.51
9139;BME280;4604;48.616;9.548;2022-11-15T12:27:52;96269.94;;;14.05;78.94
9139;BME280;4604;48.616;9.548;2022-11-15T12:30:21;96231.59;;;13.84;79.04
9139;BME280;4604;48.616;9.548;2022-11-15T12:32:51;96248.41;;;14.00;78.99
9139;BME280;4604;48.616;9.548;2022-11-15T12:35:34;96234.38;;;13.91;79.33
9139;BME280;4604;48.616;9.548;2022-11-15T12:38:03;96215.88;;;13.83;79.79
9139;BME280;4604;48.616;9.548;2022-11-15T12:41:12;96257.13;;;14.08;80.80
9139;BME280;4604;48.616;9.548;2022-11-15T12:43:40;96249.16;;;14.08;81.46
9139;BME280;4604;48.616;9.548;2022-11-15T12:46:13;96244.03;;;14.07;82.17
9139;BME280;4604;48.616;9.548;2022-11-15T12:48:54;96252.84;;;14.07;82.92
9139;BME280;4604;48.616;9.548;2022-11-15T12:57:28;96251.97;;;14.07;83.90
9139;BME280;4604;48.616;9.548;2022-11-15T12:59:57;96234.00;;;13.94;83.96
9139;BME280;4604;48.616;9.548;2022-11-15T13:02:28;96246.34;;;13.87;82.39
9139;BME280;4604;48.616;9.548;2022-11-15T13:08:01;96249.75;;;13.73;83.17
9139;BME280;4604;48.616;9.548;2022-11-15T13:10:30;96250.81;;;13.63;83.70
9139;BME280;4604;48.616;9.548;2022-11-15T13:13:00;96229.34;;;13.50;84.71
9139;BME280;4604;48.616;9.548;2022-11-15T13:15:36;96241.38;;;13.61;84.80
9139;BME280;4604;48.616;9.548;2022-11-15T13:18:33;96246.63;;;13.69;85.33
9139;BME280;4604;48.616;9.548;2022-11-15T13:21:00;96227.47;;;13.59;85.60
9139;BME280;4604;48.616;9.548;2022-11-15T13:23:52;96241.97;;;13.71;85.93
9139;BME280;4604;48.616;9.548;2022-11-15T13:26:19;96233.00;;;13.72;86.36
9139;BME280;4604;48.616;9.548;2022-11-15T13:28:48;96234.19;;;13.69;86.72
9139;BME280;4604;48.616;9.548;2022-11-15T13:31:35;96223.72;;;13.76;86.86
9139;BME280;4604;48.616;9.548;2022-11-15T13:34:13;96219.72;;;13.80;87.37
9139;BME280;4604;48.616;9.548;2022-11-15T13:36:42;96210.91;;;13.80;87.74
9139;BME280;4604;48.616;9.548;2022-11-15T13:39:14;96202.78;;;13.81;87.72
9139;BME280;4604;48.616;9.548;2022-11-15T13:41:51;96203.44;;;13.83;87.96
9139;BME280;4604;48.616;9.548;2022-11-15T13:44:21;96203.44;;;13.83;87.74
9139;BME280;4604;48.616;9.548;2022-11-15T13:46:48;96186.22;;;13.79;87.25
9139;BME280;4604;48.616;9.548;2022-11-15T13:49:15;96195.94;;;13.87;86.84
9139;BME280;4604;48.616;9.548;2022-11-15T13:51:44;96187.97;;;13.87;86.79
9139;BME280;4604;48.616;9.548;2022-11-15T13:54:17;96185.97;;;13.89;86.70
9139;BME280;4604;48.616;9.548;2022-11-15T13:56:48;96188.25;;;13.92;87.21
9139;BME280;4604;48.616;9.548;2022-11-15T13:59:22;96188.25;;;13.92;88.07